Atlantic - Newfoundland: Past 24 Hour Conditions

 

Nickerson Bank - 44251

11:00 PM ADT 30 August 2014Buoy position: 46.45N 53.38W
This table is a summary of hourly weather conditions for the past 24 hours.
Date / Time
(ADT)
Wind(knots) Wave height(m) Wave period(s) Pressure(kPa) Air tempC) Water tempC)
30 August 2014
23:00 SW 14 gust 16 1.5 11.0 102.3 15 15
22:00 WSW 12 gust 16 1.8 12.0 102.3 15 15
21:00 SSW 10 gust 12 1.7 11.0 102.3 14 15
20:00 SW 10 gust 12 1.8 12.0 102.3 14 14
19:00 WSW 12 gust 14 1.7 12.0 102.3 14 14
18:00 W 16 gust 18 1.9 12.0 102.3 15 14
17:00 W 16 gust 18 1.7 12.0 102.3 15 14
16:00 WSW 16 gust 18 1.7 12.0 102.3 15 14
15:00 W 16 gust 19 1.7 11.0 102.3 14 14
14:00 WSW 14 gust 18 1.7 11.0 102.3 14 15
13:00 WSW 12 gust 16 1.7 13.0 102.3 14 14
12:00 W 12 gust 14 1.9 12.0 102.3 13 14
11:00 WSW 8 gust 10 2.1 11.0 102.3 13 14
10:00 W 8 gust 10 2.1 11.0 102.3 12 14
9:00 WNW 6 gust 8 2.3 12.0 102.3 12 14
8:00 WNW 10 gust 14 2.3 12.0 102.2 11 14
7:00 NW 10 gust 12 2.2 11.0 102.2 11 14
6:00 NW 10 gust 14 2.3 10.0 102.1 10 14
5:00 NW 12 gust 16 2.5 11.0 102.0 10 14
4:00 NNW 14 gust 16 2.5 10.0 101.9 10 14
3:00 NNW 14 gust 18 2.4 14.0 101.8 10 14
2:00 NNW 16 gust 21 2.7 14.0 101.8 10 14
1:00 NNW 14 gust 16 2.9 14.0 101.7 10 14
0:00 N 18 gust 21 2.9 15.0 101.6 11 14
29 August 2014
23:00 N 19 gust 23 3.0 15.0 101.6 11 14
 
Map of Atlantic - Newfoundland marine weather areas Southwestern Grand Banks - 44138 Banquereau - 44139 Tail of the Bank - 44140 Nickerson Bank - 44251 Northeast Burgeo Bank - 44255 Blanc-Sablon Airport Cap Whittle Chevery Natashquan Airport Heath Point Miscou Island Grand Étang Ingonish Beach North Mountain St.Paul Island J.A. Douglas McCurdy Sydney Airport Charlottetown Airport East Point North Cape Argentia Bonavista Burgeo Cape Race Corner Brook Daniel's Harbour Englee Ferolle Point La Scie Port aux Basques Rocky Harbour Sagona Island St. Anthony Airport St. John's Int'l Airport St. Lawrence Stephenville Airport Twillingate Winterland Wreckhouse Cartwright Airport Mary's Harbour Grates Cove Pool's Island Marticot Island Long Pond Îles de la Madeleine Airport
Legend: buoyBuoy land stationLand Station